Time;durP1;ratioP1;P1;durP2;ratioP2;P2;SDS_P1;SDS_P2;PMS_P1;PMS_P2;Temp;Humidity;BMP_temperature;BMP_pressure;BME280_temperature;BME280_humidity;BME280_pressure;Samples;Min_cycle;Max_cycle;Signal;HPM_P1;HPM_P2
2023/05/04 00:00:11;;;;;;;11.30;8.07;;;6.40;99.90;;;;;;5080449;28;20395;-70
2023/05/04 00:02:37;;;;;;;10.27;8.32;;;6.40;99.90;;;;;;5081900;28;20693;-71
2023/05/04 00:05:04;;;;;;;12.90;8.32;;;6.40;99.90;;;;;;5080564;28;20372;-71
2023/05/04 00:07:33;;;;;;;12.48;8.77;;;6.40;99.90;;;;;;5040826;28;20426;-71
2023/05/04 00:10:00;;;;;;;10.98;8.82;;;6.40;99.90;;;;;;5077068;28;20097;-72
2023/05/04 00:12:26;;;;;;;11.05;8.25;;;6.30;99.90;;;;;;5057180;28;20173;-71
2023/05/04 00:14:52;;;;;;;12.10;8.48;;;6.30;99.90;;;;;;5080502;28;20509;-72
2023/05/04 00:17:18;;;;;;;12.27;8.77;;;6.20;99.90;;;;;;5083449;28;20386;-71
2023/05/04 00:19:47;;;;;;;12.07;8.95;;;6.30;99.90;;;;;;5085090;28;20050;-71
2023/05/04 00:22:13;;;;;;;11.68;9.15;;;6.20;99.90;;;;;;5084610;28;20075;-72
2023/05/04 00:24:38;;;;;;;10.93;8.93;;;6.20;99.90;;;;;;5086583;28;20083;-72
2023/05/04 00:27:04;;;;;;;12.15;8.93;;;6.20;99.90;;;;;;5052733;28;20036;-72
2023/05/04 00:29:30;;;;;;;12.25;9.23;;;6.10;99.90;;;;;;5066900;28;20051;-72
2023/05/04 00:31:56;;;;;;;13.82;9.43;;;6.10;99.90;;;;;;5081738;28;20059;-72
2023/05/04 00:34:21;;;;;;;12.20;8.85;;;6.10;99.90;;;;;;5069678;28;20040;-72
2023/05/04 00:36:47;;;;;;;13.18;8.82;;;6.10;99.90;;;;;;5088421;28;20100;-74
2023/05/04 00:39:13;;;;;;;11.80;9.45;;;6.10;99.90;;;;;;5070020;28;20044;-72
2023/05/04 00:41:39;;;;;;;12.30;9.23;;;6.10;99.90;;;;;;5051760;28;20524;-72
2023/05/04 00:44:05;;;;;;;11.52;9.30;;;6.10;99.90;;;;;;5053756;28;20058;-72
2023/05/04 00:46:32;;;;;;;13.07;9.15;;;6.10;99.90;;;;;;5068636;28;20039;-72
2023/05/04 00:48:58;;;;;;;14.10;9.57;;;6.10;99.90;;;;;;5066493;28;20051;-71
2023/05/04 00:51:25;;;;;;;14.98;9.55;;;6.00;99.90;;;;;;5060142;28;20036;-71
2023/05/04 00:53:53;;;;;;;14.35;9.65;;;6.00;99.90;;;;;;5051393;28;20342;-71
2023/05/04 00:56:29;;;;;;;11.73;8.90;;;6.00;99.90;;;;;;5087498;28;20036;-71
2023/05/04 00:58:57;;;;;;;14.82;9.45;;;5.90;99.90;;;;;;5068092;28;20047;-72
2023/05/04 01:01:24;;;;;;;15.48;10.20;;;6.00;99.90;;;;;;5084985;28;20052;-71
2023/05/04 01:03:54;;;;;;;12.70;9.45;;;5.90;99.90;;;;;;5083859;28;20096;-72
2023/05/04 01:07:17;;;;;;;15.45;10.30;;;5.90;99.90;;;;;;5100160;28;20169;-71
2023/05/04 01:09:52;;;;;;;13.15;8.85;;;5.90;99.90;;;;;;5026771;28;20555;-72
2023/05/04 01:12:37;;;;;;;13.93;9.70;;;5.90;99.90;;;;;;5025866;28;20082;-71
2023/05/04 01:15:04;;;;;;;16.45;10.85;;;5.90;99.90;;;;;;5051990;28;20133;-71
2023/05/04 01:17:30;;;;;;;13.35;9.63;;;5.90;99.90;;;;;;5083741;28;20537;-70
2023/05/04 01:19:56;;;;;;;12.68;9.75;;;5.90;99.90;;;;;;5082441;28;20043;-71
2023/05/04 01:22:22;;;;;;;14.93;9.98;;;5.80;99.90;;;;;;5068442;28;20577;-72
2023/05/04 01:24:49;;;;;;;14.27;9.98;;;5.80;99.90;;;;;;5067513;28;20044;-72
2023/05/04 01:27:57;;;;;;;13.48;9.43;;;5.80;99.90;;;;;;5068154;28;20047;-72
2023/05/04 01:30:30;;;;;;;13.15;10.20;;;5.80;99.90;;;;;;5065677;28;20048;-72
2023/05/04 01:33:01;;;;;;;14.27;10.27;;;5.80;99.90;;;;;;5069119;28;20126;-71
2023/05/04 01:35:27;;;;;;;10.82;9.50;;;5.70;99.90;;;;;;5087731;28;20044;-72
2023/05/04 01:37:56;;;;;;;13.88;9.90;;;5.80;99.90;;;;;;5050514;28;20101;-72
2023/05/04 01:40:21;;;;;;;13.00;9.20;;;5.80;99.90;;;;;;5069481;28;20562;-71
2023/05/04 01:42:47;;;;;;;14.43;9.80;;;5.80;99.90;;;;;;5083892;28;20135;-71
2023/05/04 01:45:13;;;;;;;15.60;10.32;;;5.80;99.90;;;;;;5069612;28;20127;-71
2023/05/04 01:47:39;;;;;;;11.25;9.52;;;5.80;99.90;;;;;;5083583;28;20051;-71
2023/05/04 01:50:05;;;;;;;14.55;10.00;;;5.80;99.90;;;;;;5067140;28;20482;-72
2023/05/04 01:52:31;;;;;;;13.10;10.23;;;5.80;99.90;;;;;;5080450;28;20044;-72
2023/05/04 01:54:57;;;;;;;14.75;10.52;;;5.80;99.90;;;;;;5064865;28;20036;-72
2023/05/04 01:57:24;;;;;;;12.98;10.75;;;5.80;99.90;;;;;;5048502;28;20115;-72
2023/05/04 01:59:49;;;;;;;15.73;9.73;;;5.80;99.90;;;;;;5069582;28;21110;-71
2023/05/04 02:02:15;;;;;;;12.65;9.70;;;5.80;99.90;;;;;;5047963;28;20050;-71
2023/05/04 02:04:41;;;;;;;13.52;10.13;;;5.80;99.90;;;;;;5085301;28;20150;-71
2023/05/04 02:07:07;;;;;;;12.43;9.60;;;5.80;99.90;;;;;;5073581;28;20036;-71
2023/05/04 02:09:34;;;;;;;14.07;10.10;;;5.70;99.90;;;;;;5068835;28;20055;-72
2023/05/04 02:12:00;;;;;;;14.18;9.88;;;5.80;99.90;;;;;;5085148;28;20048;-72
2023/05/04 02:14:25;;;;;;;16.88;10.30;;;5.80;99.90;;;;;;5065889;28;20045;-71
2023/05/04 02:16:51;;;;;;;14.20;10.00;;;5.80;99.90;;;;;;5082598;28;20044;-72
2023/05/04 02:19:17;;;;;;;13.98;10.38;;;5.70;99.90;;;;;;5072495;28;20044;-72
2023/05/04 02:21:43;;;;;;;15.50;10.80;;;5.70;99.90;;;;;;5066295;28;20040;-71
2023/05/04 02:24:08;;;;;;;13.25;10.63;;;5.70;99.90;;;;;;5079447;28;20065;-72
2023/05/04 02:26:35;;;;;;;14.07;10.50;;;5.70;99.90;;;;;;5077758;28;20546;-72
2023/05/04 02:29:04;;;;;;;15.52;10.90;;;5.70;99.90;;;;;;5086190;28;20410;-72
2023/05/04 02:31:31;;;;;;;12.80;10.40;;;5.70;99.90;;;;;;5067655;28;20554;-72
2023/05/04 02:33:57;;;;;;;13.38;10.25;;;5.70;99.90;;;;;;5067452;28;20466;-72
2023/05/04 02:36:22;;;;;;;14.75;10.27;;;5.70;99.90;;;;;;5066177;28;20154;-72
2023/05/04 02:38:48;;;;;;;12.23;10.48;;;5.80;99.90;;;;;;5092053;28;20048;-72
2023/05/04 02:41:14;;;;;;;13.38;10.68;;;5.70;99.90;;;;;;5050384;28;20143;-72
2023/05/04 02:43:40;;;;;;;13.27;10.68;;;5.80;99.90;;;;;;5059566;28;20044;-72
2023/05/04 02:46:06;;;;;;;15.20;11.32;;;5.70;99.90;;;;;;5069671;28;20506;-71
2023/05/04 02:48:32;;;;;;;15.88;10.63;;;5.80;99.90;;;;;;5082465;28;20156;-71
2023/05/04 02:50:58;;;;;;;13.15;10.63;;;5.70;99.90;;;;;;5080392;28;20097;-71
2023/05/04 02:53:24;;;;;;;15.10;11.00;;;5.70;99.90;;;;;;5090908;28;20100;-72
2023/05/04 02:55:49;;;;;;;13.77;10.38;;;5.70;99.90;;;;;;5093281;28;20047;-72
2023/05/04 02:58:15;;;;;;;18.48;11.57;;;5.70;99.90;;;;;;5054901;28;20048;-72
2023/05/04 03:00:41;;;;;;;14.85;11.13;;;5.70;99.90;;;;;;5080057;28;20119;-72
2023/05/04 03:03:07;;;;;;;13.98;10.50;;;5.70;99.90;;;;;;5052835;28;20043;-72
2023/05/04 03:05:33;;;;;;;15.60;11.68;;;5.70;99.90;;;;;;5068577;28;20045;-71
2023/05/04 03:07:59;;;;;;;14.73;10.50;;;5.70;99.90;;;;;;5085339;28;20040;-72
2023/05/04 03:10:24;;;;;;;15.82;10.57;;;5.70;99.90;;;;;;5079703;28;20041;-72
2023/05/04 03:12:50;;;;;;;12.68;10.80;;;5.70;99.90;;;;;;5072339;28;20036;-71
2023/05/04 03:15:16;;;;;;;15.10;11.05;;;5.80;99.90;;;;;;5091178;28;20122;-71
2023/05/04 03:17:42;;;;;;;17.13;10.93;;;5.80;99.90;;;;;;5084984;28;20144;-71
2023/05/04 03:20:09;;;;;;;15.55;10.82;;;5.70;99.90;;;;;;5083464;28;20043;-71
2023/05/04 03:22:35;;;;;;;13.40;11.23;;;5.80;99.90;;;;;;5077176;28;20093;-71
2023/05/04 03:25:01;;;;;;;16.80;11.60;;;5.80;99.90;;;;;;5070701;28;21016;-71
2023/05/04 03:27:26;;;;;;;15.82;11.43;;;5.80;99.90;;;;;;5088973;28;20048;-71
2023/05/04 03:29:52;;;;;;;15.23;11.40;;;5.80;99.90;;;;;;5050532;28;20044;-71
2023/05/04 03:32:18;;;;;;;16.50;11.43;;;5.80;99.90;;;;;;5051746;28;20048;-71
2023/05/04 03:34:44;;;;;;;14.23;11.30;;;5.80;99.90;;;;;;5086422;28;20069;-71
2023/05/04 03:37:11;;;;;;;14.02;10.55;;;5.80;99.90;;;;;;5079738;28;20055;-71
2023/05/04 03:39:36;;;;;;;15.05;11.07;;;5.80;99.90;;;;;;5075343;28;20044;-71
2023/05/04 03:42:03;;;;;;;15.05;10.88;;;5.80;99.90;;;;;;5093600;28;20050;-71
2023/05/04 03:44:29;;;;;;;13.48;10.57;;;5.80;99.90;;;;;;5085806;28;20044;-71
2023/05/04 03:46:55;;;;;;;12.90;11.18;;;5.80;99.90;;;;;;5090326;28;20044;-71
2023/05/04 03:49:21;;;;;;;17.50;11.75;;;5.80;99.90;;;;;;5090351;28;20468;-71
2023/05/04 03:51:46;;;;;;;13.63;11.63;;;5.80;99.90;;;;;;5085892;28;20123;-71
2023/05/04 03:54:15;;;;;;;15.38;11.25;;;5.80;99.90;;;;;;5080780;28;20043;-71
2023/05/04 03:56:41;;;;;;;15.80;11.23;;;5.80;99.90;;;;;;5088856;28;20078;-71
2023/05/04 03:59:06;;;;;;;13.77;11.00;;;5.80;99.90;;;;;;5086556;28;20040;-71
2023/05/04 04:01:32;;;;;;;14.88;10.82;;;5.80;99.90;;;;;;5086898;28;20257;-71
2023/05/04 04:03:58;;;;;;;13.85;11.75;;;5.80;99.90;;;;;;5082078;28;20105;-72
2023/05/04 04:06:27;;;;;;;16.65;11.68;;;5.80;99.90;;;;;;5083001;28;20131;-72
2023/05/04 04:08:52;;;;;;;14.18;10.98;;;5.80;99.90;;;;;;5092919;28;20040;-71
2023/05/04 04:11:18;;;;;;;17.67;12.45;;;5.90;99.90;;;;;;5078324;28;20039;-71
2023/05/04 04:13:44;;;;;;;15.93;12.20;;;5.80;99.90;;;;;;5074191;28;20506;-72
2023/05/04 04:16:10;;;;;;;17.73;12.23;;;5.80;99.90;;;;;;5083443;28;20159;-72
2023/05/04 04:18:36;;;;;;;16.10;12.02;;;5.80;99.90;;;;;;5077146;28;20041;-72
2023/05/04 04:21:02;;;;;;;16.08;12.18;;;5.90;99.90;;;;;;5070451;28;20569;-72
2023/05/04 04:23:28;;;;;;;17.30;12.48;;;5.90;99.90;;;;;;5067808;28;20437;-72
2023/05/04 04:25:57;;;;;;;16.20;12.38;;;5.90;99.90;;;;;;5086306;28;20051;-72
2023/05/04 04:28:22;;;;;;;15.55;12.20;;;5.90;99.90;;;;;;5091120;28;20145;-72
2023/05/04 04:30:48;;;;;;;16.67;12.00;;;5.90;99.90;;;;;;5067399;28;20056;-71
2023/05/04 04:33:15;;;;;;;16.88;13.73;;;5.90;99.90;;;;;;5084665;28;20414;-71
2023/05/04 04:35:41;;;;;;;17.23;12.20;;;5.80;99.90;;;;;;5087021;28;20063;-71
2023/05/04 04:38:07;;;;;;;15.80;11.73;;;5.90;99.90;;;;;;5078303;28;20041;-74
2023/05/04 04:40:32;;;;;;;17.33;12.63;;;5.90;99.90;;;;;;5093147;28;20109;-71
2023/05/04 04:42:58;;;;;;;17.38;13.18;;;5.90;99.90;;;;;;5091949;28;20132;-71
2023/05/04 04:45:24;;;;;;;16.23;12.75;;;5.90;99.90;;;;;;5068735;28;20040;-72
2023/05/04 04:47:53;;;;;;;15.50;11.45;;;5.90;99.90;;;;;;5089426;28;20047;-71
2023/05/04 04:50:19;;;;;;;15.98;12.95;;;5.90;99.90;;;;;;5082437;28;20067;-70
2023/05/04 04:52:45;;;;;;;15.60;12.18;;;5.80;99.90;;;;;;5086569;28;20809;-70
2023/05/04 04:55:11;;;;;;;16.00;12.23;;;5.80;99.90;;;;;;5093310;28;20042;-70
2023/05/04 04:57:37;;;;;;;16.23;11.93;;;5.90;99.90;;;;;;5072079;28;20066;-71
2023/05/04 05:00:07;;;;;;;15.93;12.40;;;5.90;99.90;;;;;;5079002;28;20122;-71
2023/05/04 05:02:33;;;;;;;16.02;13.20;;;5.90;99.90;;;;;;5084457;28;20059;-70
2023/05/04 05:04:59;;;;;;;15.02;13.38;;;6.00;99.90;;;;;;5087469;28;20040;-70
2023/05/04 05:07:25;;;;;;;19.40;14.43;;;6.00;99.90;;;;;;5067921;28;20044;-70
2023/05/04 05:09:51;;;;;;;17.98;13.38;;;6.00;99.90;;;;;;5087433;28;20674;-70
2023/05/04 05:12:17;;;;;;;14.65;12.27;;;6.00;99.90;;;;;;5082732;28;20044;-71
2023/05/04 05:14:44;;;;;;;16.42;12.65;;;6.00;99.90;;;;;;5086366;28;20053;-70
2023/05/04 05:17:11;;;;;;;16.58;12.63;;;6.10;99.90;;;;;;5075688;28;20055;-71
2023/05/04 05:19:37;;;;;;;15.27;12.63;;;6.10;99.90;;;;;;5070778;28;20081;-71
2023/05/04 05:22:03;;;;;;;16.35;12.43;;;6.10;99.90;;;;;;5068961;28;20420;-70
2023/05/04 05:24:29;;;;;;;16.65;13.20;;;6.10;99.90;;;;;;5087048;28;20490;-70
2023/05/04 05:26:54;;;;;;;19.63;13.45;;;6.20;99.90;;;;;;5067137;28;20054;-70
2023/05/04 05:29:20;;;;;;;15.35;13.65;;;6.20;99.90;;;;;;5071015;28;20047;-70
2023/05/04 05:31:46;;;;;;;15.27;12.88;;;6.20;99.90;;;;;;5067770;28;20111;-71
2023/05/04 05:34:12;;;;;;;19.58;13.25;;;6.30;99.90;;;;;;5072251;28;20078;-70
2023/05/04 05:36:38;;;;;;;17.25;13.27;;;6.30;99.90;;;;;;5086586;28;20502;-71
2023/05/04 05:39:04;;;;;;;16.75;13.10;;;6.40;99.90;;;;;;5056720;28;20075;-70
2023/05/04 05:41:30;;;;;;;18.27;13.30;;;6.40;99.90;;;;;;5086126;28;20064;-70
2023/05/04 05:43:55;;;;;;;14.35;12.57;;;6.40;99.90;;;;;;5086118;28;20036;-70
2023/05/04 05:46:24;;;;;;;17.73;13.13;;;6.40;99.90;;;;;;5089228;28;20092;-72
2023/05/04 05:48:49;;;;;;;17.60;12.75;;;6.50;99.90;;;;;;5087869;28;20512;-72
2023/05/04 05:51:15;;;;;;;16.65;13.40;;;6.60;99.90;;;;;;5034477;28;20067;-71
2023/05/04 05:53:41;;;;;;;16.55;13.00;;;6.60;99.90;;;;;;5067767;28;20044;-72
2023/05/04 05:56:07;;;;;;;17.52;13.60;;;6.70;99.90;;;;;;5067647;28;20082;-72
2023/05/04 05:58:33;;;;;;;17.85;12.65;;;6.70;99.90;;;;;;5067211;28;20435;-70
2023/05/04 06:00:59;;;;;;;14.23;12.68;;;6.80;99.90;;;;;;5070266;28;20051;-71
2023/05/04 06:03:24;;;;;;;17.25;13.00;;;6.90;99.90;;;;;;5050901;28;20165;-71
2023/05/04 06:05:50;;;;;;;15.40;12.75;;;6.90;99.90;;;;;;5033217;28;20940;-71
2023/05/04 06:08:19;;;;;;;16.85;12.80;;;7.00;99.90;;;;;;5068150;28;20051;-71
2023/05/04 06:10:45;;;;;;;17.50;12.85;;;7.10;99.90;;;;;;5067088;28;20166;-70
2023/05/04 06:13:10;;;;;;;19.25;12.93;;;7.10;99.90;;;;;;5078522;28;20124;-71
2023/05/04 06:15:36;;;;;;;19.15;12.07;;;7.20;99.90;;;;;;5061800;28;20063;-71
2023/05/04 06:18:02;;;;;;;18.70;12.93;;;7.30;99.90;;;;;;5034906;28;20043;-71
2023/05/04 06:20:28;;;;;;;16.70;12.73;;;7.40;99.90;;;;;;5066003;28;20122;-72
2023/05/04 06:22:57;;;;;;;15.57;12.65;;;7.40;99.90;;;;;;5067378;28;20189;-72
2023/05/04 06:25:26;;;;;;;15.00;12.68;;;7.50;99.90;;;;;;5032908;28;20048;-71
2023/05/04 06:27:52;;;;;;;17.05;12.60;;;7.50;99.90;;;;;;5069138;28;20270;-72
2023/05/04 06:30:18;;;;;;;17.85;12.75;;;7.60;99.90;;;;;;5064940;28;20036;-72
2023/05/04 06:32:44;;;;;;;15.43;13.05;;;7.60;99.90;;;;;;5049166;28;20464;-72
2023/05/04 06:35:09;;;;;;;16.98;12.82;;;7.70;99.90;;;;;;5065153;28;20051;-71
2023/05/04 06:37:38;;;;;;;15.32;12.48;;;7.80;99.90;;;;;;5065032;28;20056;-72
2023/05/04 06:40:06;;;;;;;14.75;12.77;;;7.90;99.90;;;;;;5084160;28;20040;-72
2023/05/04 06:42:32;;;;;;;15.50;12.52;;;8.00;99.90;;;;;;5067469;28;20048;-71
2023/05/04 06:44:58;;;;;;;14.77;12.18;;;8.00;99.90;;;;;;5083344;28;20118;-72
2023/05/04 06:47:26;;;;;;;15.70;12.40;;;8.10;99.90;;;;;;5050062;28;20443;-74
2023/05/04 06:49:52;;;;;;;13.00;11.30;;;8.20;99.90;;;;;;5065822;28;20457;-73
2023/05/04 06:52:18;;;;;;;14.38;11.80;;;8.30;99.90;;;;;;5065477;28;20043;-73
2023/05/04 06:54:45;;;;;;;16.77;12.35;;;8.40;99.90;;;;;;5082851;28;20048;-74
2023/05/04 06:57:10;;;;;;;13.65;11.57;;;8.50;99.90;;;;;;5081542;28;20088;-74
2023/05/04 06:59:36;;;;;;;13.30;11.73;;;8.60;99.90;;;;;;5069799;28;20459;-73
2023/05/04 07:02:02;;;;;;;14.32;11.25;;;8.70;99.90;;;;;;5065558;28;20048;-74
2023/05/04 07:04:28;;;;;;;14.25;11.35;;;8.80;99.90;;;;;;5069552;28;20043;-73
2023/05/04 07:06:56;;;;;;;13.77;10.75;;;8.80;99.90;;;;;;5064108;28;20058;-73
2023/05/04 07:09:22;;;;;;;13.73;10.70;;;9.00;99.90;;;;;;5066322;28;20463;-73
2023/05/04 07:11:48;;;;;;;14.75;10.38;;;9.10;99.90;;;;;;5049001;28;20151;-74
2023/05/04 07:14:14;;;;;;;13.73;11.27;;;9.20;99.90;;;;;;5067050;28;20032;-73
2023/05/04 07:16:43;;;;;;;13.00;10.70;;;9.30;99.90;;;;;;5080960;28;20044;-73
2023/05/04 07:19:09;;;;;;;13.52;10.60;;;9.40;99.90;;;;;;5064308;28;20050;-73
2023/05/04 07:21:35;;;;;;;14.88;10.18;;;9.40;99.90;;;;;;5085920;28;20482;-72
2023/05/04 07:24:00;;;;;;;12.77;11.32;;;9.60;99.90;;;;;;5066787;28;20036;-72
2023/05/04 07:26:26;;;;;;;13.82;10.80;;;9.60;99.90;;;;;;5045418;28;20796;-72
2023/05/04 07:28:52;;;;;;;16.58;11.15;;;9.70;99.90;;;;;;5082313;28;20079;-72
2023/05/04 07:31:18;;;;;;;15.60;10.48;;;9.80;99.90;;;;;;5084504;28;20051;-72
2023/05/04 07:33:44;;;;;;;12.73;10.40;;;9.90;99.90;;;;;;5069576;28;20357;-72
2023/05/04 07:36:10;;;;;;;14.05;10.00;;;10.00;99.90;;;;;;5083648;28;20137;-72
2023/05/04 07:38:36;;;;;;;12.07;9.05;;;10.10;99.90;;;;;;5083942;28;20047;-70
2023/05/04 07:41:02;;;;;;;15.40;9.90;;;10.20;99.90;;;;;;5066105;28;20044;-71
2023/05/04 07:43:28;;;;;;;12.30;8.98;;;10.40;99.90;;;;;;5054503;28;20143;-71
2023/05/04 07:45:57;;;;;;;11.63;9.35;;;10.40;99.90;;;;;;5078167;28;20044;-70
2023/05/04 07:48:22;;;;;;;11.23;9.48;;;10.60;99.90;;;;;;5097155;28;20064;-70
2023/05/04 07:50:49;;;;;;;12.25;9.43;;;10.60;99.90;;;;;;5062204;28;20553;-71
2023/05/04 07:53:14;;;;;;;10.70;9.02;;;10.70;99.90;;;;;;5067432;28;20040;-70
2023/05/04 07:55:40;;;;;;;14.45;8.98;;;10.90;99.90;;;;;;5094059;28;20043;-70
2023/05/04 07:58:06;;;;;;;15.73;9.85;;;11.00;99.90;;;;;;5084884;28;20051;-70
2023/05/04 08:00:32;;;;;;;12.05;8.55;;;11.00;99.90;;;;;;5083679;28;20400;-71
2023/05/04 08:02:57;;;;;;;9.68;8.38;;;11.10;99.90;;;;;;5088142;28;20036;-71
2023/05/04 08:05:26;;;;;;;10.35;8.80;;;11.20;99.90;;;;;;5056877;28;20131;-71
2023/05/04 08:07:52;;;;;;;13.32;8.10;;;11.40;99.90;;;;;;5072341;28;20063;-72
2023/05/04 08:10:18;;;;;;;11.18;8.60;;;11.50;99.90;;;;;;5078987;28;20673;-72
2023/05/04 08:12:43;;;;;;;14.07;9.05;;;11.70;99.90;;;;;;5072275;28;20074;-72
2023/05/04 08:15:09;;;;;;;19.73;9.05;;;11.80;99.90;;;;;;5074937;28;20041;-72
2023/05/04 08:17:38;;;;;;;9.75;7.75;;;11.90;99.90;;;;;;5051043;28;20503;-71
2023/05/04 08:20:05;;;;;;;11.70;8.35;;;12.00;99.90;;;;;;5066222;28;20048;-71
2023/05/04 08:22:32;;;;;;;10.93;7.90;;;12.10;99.90;;;;;;5085357;28;20043;-71
2023/05/04 08:24:57;;;;;;;16.77;8.23;;;12.20;99.90;;;;;;5070225;28;20115;-71
2023/05/04 08:27:24;;;;;;;12.02;7.88;;;12.20;99.90;;;;;;5088251;27;20194;-71
2023/05/04 08:29:49;;;;;;;12.02;8.57;;;12.30;99.90;;;;;;5050856;28;20040;-71
2023/05/04 08:32:16;;;;;;;19.08;8.20;;;12.30;99.90;;;;;;5077636;28;20366;-71
2023/05/04 08:34:42;;;;;;;10.73;8.25;;;12.40;99.90;;;;;;5087573;28;20273;-72
2023/05/04 08:37:07;;;;;;;12.05;7.85;;;12.60;99.90;;;;;;5077040;28;20498;-72
2023/05/04 08:39:33;;;;;;;10.88;7.78;;;12.70;99.90;;;;;;5100577;28;20094;-71
2023/05/04 08:41:59;;;;;;;10.60;7.72;;;12.80;99.90;;;;;;5083806;28;20112;-72
2023/05/04 08:44:25;;;;;;;12.82;8.40;;;12.90;99.90;;;;;;5070458;28;20047;-72
2023/05/04 08:46:52;;;;;;;10.60;7.47;;;13.00;99.90;;;;;;5082375;28;20036;-72
2023/05/04 08:49:22;;;;;;;8.43;7.43;;;13.00;99.90;;;;;;5090539;28;20331;-72
2023/05/04 08:51:51;;;;;;;14.07;7.03;;;13.10;99.40;;;;;;5085200;28;20051;-72
2023/05/04 08:54:17;;;;;;;12.02;7.25;;;13.20;97.70;;;;;;5068964;28;20032;-72
2023/05/04 08:56:48;;;;;;;11.43;7.43;;;13.30;97.10;;;;;;5088782;28;20076;-72
2023/05/04 08:59:19;;;;;;;10.65;7.30;;;13.40;96.50;;;;;;5063837;28;20518;-72
2023/05/04 09:01:49;;;;;;;15.48;8.15;;;13.50;97.10;;;;;;5087492;28;20039;-72
2023/05/04 09:04:19;;;;;;;21.55;8.10;;;13.60;96.70;;;;;;5092927;28;20371;-72
2023/05/04 09:06:48;;;;;;;10.80;7.18;;;13.70;96.20;;;;;;5055733;28;20448;-73
2023/05/04 09:09:14;;;;;;;10.82;7.28;;;13.80;96.40;;;;;;5084416;28;20120;-73
2023/05/04 09:11:40;;;;;;;11.57;7.55;;;13.90;96.10;;;;;;5083601;28;20040;-72
2023/05/04 09:14:06;;;;;;;10.82;7.18;;;14.10;95.20;;;;;;5068451;28;20096;-72
2023/05/04 09:16:35;;;;;;;12.70;7.43;;;14.10;95.00;;;;;;5073130;28;20097;-72
2023/05/04 09:19:03;;;;;;;34.38;9.35;;;14.30;95.20;;;;;;5090028;28;20047;-72
2023/05/04 09:21:30;;;;;;;10.98;7.50;;;14.40;93.80;;;;;;5075925;28;20032;-75
2023/05/04 09:23:56;;;;;;;14.57;7.40;;;14.60;92.70;;;;;;5087741;28;20498;-75
2023/05/04 09:26:31;;;;;;;12.90;7.35;;;14.70;92.30;;;;;;5081043;28;20047;-74
2023/05/04 09:29:17;;;;;;;9.45;6.90;;;14.80;92.10;;;;;;5074997;28;20052;-75
2023/05/04 09:31:54;;;;;;;8.90;6.78;;;14.90;91.10;;;;;;5052377;28;20385;-74
2023/05/04 09:34:21;;;;;;;10.50;6.60;;;14.90;90.80;;;;;;5088448;28;20055;-75
2023/05/04 09:37:01;;;;;;;9.57;6.95;;;14.90;90.40;;;;;;5086049;28;20143;-75
2023/05/04 09:39:28;;;;;;;11.35;6.82;;;14.90;90.00;;;;;;5072312;28;20547;-74
2023/05/04 09:41:56;;;;;;;16.93;6.53;;;15.00;91.10;;;;;;5068903;28;20040;-74
2023/05/04 09:44:23;;;;;;;9.65;6.75;;;15.20;90.00;;;;;;5085105;28;20058;-75
2023/05/04 09:46:57;;;;;;;10.50;6.28;;;15.40;89.80;;;;;;5047992;28;20040;-75
2023/05/04 09:49:34;;;;;;;11.13;7.07;;;15.50;89.00;;;;;;5085018;28;20109;-75
2023/05/04 09:52:01;;;;;;;8.45;6.20;;;15.70;87.40;;;;;;5108956;27;20134;-74
2023/05/04 09:54:33;;;;;;;9.02;6.05;;;15.70;85.90;;;;;;5075260;28;20069;-76
2023/05/04 09:57:21;;;;;;;9.60;6.25;;;15.70;83.10;;;;;;5076848;28;20572;-75
2023/05/04 09:59:48;;;;;;;9.88;6.03;;;15.70;83.90;;;;;;5091161;28;20047;-75
2023/05/04 10:02:15;;;;;;;7.82;5.50;;;15.70;85.90;;;;;;5056460;28;20436;-74
2023/05/04 10:04:42;;;;;;;9.40;5.30;;;15.90;85.60;;;;;;5071699;28;20051;-75
2023/05/04 10:07:08;;;;;;;11.88;6.63;;;16.10;83.80;;;;;;5086565;28;20048;-74
2023/05/04 10:09:34;;;;;;;7.75;6.30;;;16.20;83.30;;;;;;5072032;28;20040;-75
2023/05/04 10:12:04;;;;;;;19.38;6.28;;;16.30;82.60;;;;;;5084962;28;20067;-75
2023/05/04 10:14:34;;;;;;;9.07;5.93;;;16.40;81.10;;;;;;5077006;28;20043;-83
2023/05/04 10:17:18;;;;;;;9.82;6.07;;;16.50;82.50;;;;;;5084239;28;20044;-82
2023/05/04 10:20:02;;;;;;;12.20;6.25;;;16.60;78.70;;;;;;5085570;28;20221;-80
2023/05/04 10:22:56;;;;;;;8.10;5.30;;;16.60;79.90;;;;;;5053934;28;20144;-83
2023/05/04 10:25:33;;;;;;;9.50;6.30;;;16.70;82.10;;;;;;5085616;28;20041;-82
2023/05/04 10:28:11;;;;;;;9.48;6.13;;;16.70;79.10;;;;;;5084992;28;20040;-79
2023/05/04 10:30:38;;;;;;;10.05;6.20;;;16.80;80.10;;;;;;5082788;28;20056;-81
2023/05/04 10:33:04;;;;;;;9.95;5.85;;;16.90;75.90;;;;;;5094586;28;20568;-83
2023/05/04 10:35:31;;;;;;;16.88;6.53;;;16.80;75.00;;;;;;5086950;28;20040;-82
2023/05/04 10:37:57;;;;;;;8.60;6.00;;;16.80;77.00;;;;;;5089854;28;20048;-83
2023/05/04 10:40:37;;;;;;;7.47;5.72;;;17.00;77.30;;;;;;5064684;28;20395;-82
2023/05/04 10:43:03;;;;;;;9.48;5.82;;;17.10;75.90;;;;;;5086197;28;20587;-83
2023/05/04 10:45:39;;;;;;;7.13;5.45;;;17.10;76.50;;;;;;5084438;28;20467;-83
2023/05/04 10:48:07;;;;;;;8.60;5.32;;;17.30;75.10;;;;;;5083383;28;20120;-83
2023/05/04 10:50:43;;;;;;;8.93;5.57;;;17.30;71.90;;;;;;5069685;28;20044;-82
2023/05/04 10:53:10;;;;;;;7.85;5.40;;;17.30;73.90;;;;;;5069797;28;20074;-81
2023/05/04 10:55:43;;;;;;;8.63;5.07;;;17.40;73.40;;;;;;5065999;28;20040;-81
2023/05/04 10:58:13;;;;;;;9.43;5.55;;;17.50;73.80;;;;;;5065010;28;20499;-82
2023/05/04 11:00:47;;;;;;;10.48;5.55;;;17.50;73.30;;;;;;5077295;28;20520;-81
2023/05/04 11:03:13;;;;;;;7.53;5.90;;;17.60;69.80;;;;;;5104535;28;20065;-81
2023/05/04 11:05:44;;;;;;;8.52;5.57;;;17.60;70.20;;;;;;5085826;28;20059;-82
2023/05/04 11:08:19;;;;;;;8.40;5.97;;;17.50;70.10;;;;;;5082506;28;20052;-81
2023/05/04 11:11:03;;;;;;;8.98;5.50;;;17.60;72.10;;;;;;5104118;28;20048;-82
2023/05/04 11:13:30;;;;;;;8.80;5.75;;;17.80;72.20;;;;;;5081625;28;20068;-81
2023/05/04 11:15:56;;;;;;;8.23;5.00;;;17.90;70.20;;;;;;5069416;28;20044;-82
2023/05/04 11:18:30;;;;;;;9.15;5.80;;;18.00;70.80;;;;;;5083721;28;20547;-83
2023/05/04 11:20:57;;;;;;;8.02;5.15;;;18.10;68.50;;;;;;5080691;28;20062;-82
2023/05/04 11:23:23;;;;;;;7.60;5.20;;;17.90;68.70;;;;;;5095098;28;20093;-83
2023/05/04 11:25:49;;;;;;;7.40;4.70;;;17.90;68.70;;;;;;5087567;28;20048;-81
2023/05/04 11:28:15;;;;;;;6.90;5.43;;;18.00;68.20;;;;;;5079304;28;20138;-81
2023/05/04 11:30:43;;;;;;;8.15;5.43;;;18.00;66.90;;;;;;5091349;28;20127;-82
2023/05/04 11:33:11;;;;;;;9.65;6.15;;;18.00;68.40;;;;;;5089717;28;20066;-82
2023/05/04 11:35:37;;;;;;;9.25;5.10;;;18.10;67.40;;;;;;5090448;28;20040;-82
2023/05/04 11:38:03;;;;;;;9.40;5.95;;;18.10;68.30;;;;;;5068619;28;20055;-83
2023/05/04 11:40:29;;;;;;;7.63;4.63;;;18.20;67.40;;;;;;5086889;28;20044;-82
2023/05/04 11:42:56;;;;;;;7.70;4.90;;;18.20;68.10;;;;;;5077190;28;20036;-84
2023/05/04 11:45:27;;;;;;;6.28;4.20;;;18.30;66.90;;;;;;5097230;28;20372;-83
2023/05/04 11:47:55;;;;;;;10.43;4.70;;;18.40;67.80;;;;;;5093241;28;20058;-84
2023/05/04 11:50:22;;;;;;;7.25;4.68;;;18.60;64.80;;;;;;5068831;28;20043;-83
2023/05/04 11:52:48;;;;;;;7.07;4.35;;;18.70;64.00;;;;;;5050522;28;20052;-83
2023/05/04 11:55:28;;;;;;;8.52;3.92;;;18.80;63.10;;;;;;5084829;28;20223;-82
2023/05/04 11:58:02;;;;;;;9.82;4.82;;;18.90;64.50;;;;;;5094045;28;20047;-80
2023/05/04 12:00:42;;;;;;;10.93;5.10;;;19.00;64.60;;;;;;5076432;28;20608;-80
2023/05/04 12:03:26;;;;;;;7.68;5.13;;;19.20;62.00;;;;;;5073196;28;20063;-83
2023/05/04 12:05:54;;;;;;;11.65;4.85;;;19.20;61.20;;;;;;5092587;28;20484;-82
2023/05/04 12:08:34;;;;;;;8.50;5.07;;;19.20;62.20;;;;;;5084269;28;20040;-79
2023/05/04 12:11:24;;;;;;;;;;;19.40;62.20;;;;;;5069765;28;20482;-81
2023/05/04 12:14:08;;;;;;;20.80;5.75;;;19.50;59.90;;;;;;5065682;28;19927;-82
2023/05/04 12:16:35;;;;;;;7.60;4.45;;;19.40;62.10;;;;;;5082434;28;20059;-83
2023/05/04 12:19:11;;;;;;;7.75;4.30;;;19.60;61.10;;;;;;5066220;28;20044;-83
2023/05/04 12:21:50;;;;;;;7.93;4.20;;;19.70;59.30;;;;;;5047135;28;20041;-81
2023/05/04 12:24:16;;;;;;;5.55;3.70;;;19.80;58.60;;;;;;5084918;28;20049;-82
2023/05/04 12:26:42;;;;;;;8.30;4.07;;;19.90;59.00;;;;;;5086621;28;20146;-81
2023/05/04 12:29:08;;;;;;;6.75;4.07;;;19.90;57.70;;;;;;5074182;28;20119;-82
2023/05/04 12:31:34;;;;;;;7.70;3.70;;;19.80;57.20;;;;;;5066975;28;20135;-83
2023/05/04 12:33:59;;;;;;;6.57;3.70;;;19.80;57.10;;;;;;5086956;28;20185;-83
2023/05/04 12:36:27;;;;;;;9.30;4.35;;;19.90;56.50;;;;;;5056264;28;20129;-82
2023/05/04 12:38:53;;;;;;;6.97;3.80;;;19.90;57.50;;;;;;5064940;28;20070;-81
2023/05/04 12:41:22;;;;;;;6.47;3.80;;;20.10;57.10;;;;;;5079003;28;20043;-82
2023/05/04 12:43:48;;;;;;;11.07;3.78;;;20.00;56.80;;;;;;5072823;28;20044;-82